Time;durP1;ratioP1;P1;durP2;ratioP2;P2;SDS_P1;SDS_P2;PMS_P1;PMS_P2;Temp;Humidity;BMP_temperature;BMP_pressure;BME280_temperature;BME280_humidity;BME280_pressure;Samples;Min_cycle;Max_cycle;Signal;HPM_P1;HPM_P2
2021/09/26 00:01:19;;;;;;;;;;;20.70;66.70;;;;;;5023838;28;19943;-67
2021/09/26 00:03:45;;;;;;;;;;;20.70;66.70;;;;;;5024024;28;19913;-67
2021/09/26 00:06:10;;;;;;;;;;;20.70;66.70;;;;;;5025026;28;19921;-66
2021/09/26 00:08:36;;;;;;;;;;;20.70;66.70;;;;;;5016079;28;20552;-67
2021/09/26 00:11:05;;;;;;;;;;;20.70;66.70;;;;;;5023535;28;20172;-67
2021/09/26 00:13:34;;;;;;;;;;;20.70;66.70;;;;;;5022551;28;19917;-67
2021/09/26 00:15:59;;;;;;;;;;;20.70;66.60;;;;;;5022740;28;19929;-67
2021/09/26 00:18:25;;;;;;;;;;;20.70;66.50;;;;;;5022211;28;19936;-67
2021/09/26 00:20:50;;;;;;;;;;;20.70;66.60;;;;;;5007041;28;20001;-67
2021/09/26 00:23:18;;;;;;;;;;;20.70;66.50;;;;;;5023181;28;19928;-67
2021/09/26 00:25:43;;;;;;;;;;;20.70;66.50;;;;;;5022784;28;19924;-67
2021/09/26 00:28:09;;;;;;;;;;;20.70;66.60;;;;;;5023903;28;19930;-66
2021/09/26 00:30:34;;;;;;;;;;;20.70;66.50;;;;;;5039581;28;19924;-67
2021/09/26 00:33:00;;;;;;;;;;;20.70;66.50;;;;;;5022464;28;19928;-67
2021/09/26 00:35:27;;;;;;;;;;;20.70;66.50;;;;;;5023759;28;19932;-66
2021/09/26 00:37:52;;;;;;;;;;;20.70;66.40;;;;;;5022484;28;19955;-67
2021/09/26 00:40:17;;;;;;;;;;;20.70;66.40;;;;;;5023031;28;20360;-67
2021/09/26 00:42:43;;;;;;;;;;;20.70;66.40;;;;;;5022583;28;19935;-67
2021/09/26 00:45:09;;;;;;;;;;;20.70;66.40;;;;;;5024072;28;20528;-67
2021/09/26 00:47:34;;;;;;;;;;;20.70;66.30;;;;;;5005314;28;19927;-67
2021/09/26 00:49:59;;;;;;;;;;;20.70;66.20;;;;;;5023321;28;19925;-66
2021/09/26 00:52:25;;;;;;;;;;;20.70;66.30;;;;;;5023540;28;19925;-66
2021/09/26 00:54:50;;;;;;;;;;;20.70;66.20;;;;;;5039551;28;20013;-67
2021/09/26 00:57:16;;;;;;;;;;;20.70;66.20;;;;;;5022298;28;20012;-66
2021/09/26 00:59:41;;;;;;;;;;;20.70;66.10;;;;;;5022872;28;19929;-66
2021/09/26 01:02:07;;;;;;;;;;;20.70;66.10;;;;;;5023839;28;19917;-66
2021/09/26 01:04:32;;;;;;;;;;;20.70;66.10;;;;;;5022434;28;19924;-66
2021/09/26 01:07:11;;;;;;;;;;;20.70;66.10;;;;;;5038804;28;19917;-66
2021/09/26 01:09:48;;;;;;;;;;;20.70;66.10;;;;;;5021667;28;20367;-67
2021/09/26 01:12:14;;;;;;;;;;;20.70;66.00;;;;;;5021534;28;19921;-67
2021/09/26 01:14:54;;;;;;;;;;;20.70;66.00;;;;;;5023262;28;19990;-67
2021/09/26 01:17:25;;;;;;;;;;;20.70;66.00;;;;;;5023093;28;20291;-65
2021/09/26 01:19:54;;;;;;;;;;;20.70;65.90;;;;;;5021455;28;20308;-67
2021/09/26 01:22:21;;;;;;;;;;;20.70;65.90;;;;;;5023544;28;19917;-67
2021/09/26 01:24:53;;;;;;;;;;;20.70;65.90;;;;;;5021789;28;19988;-66
2021/09/26 01:27:24;;;;;;;;;;;20.70;65.80;;;;;;5023831;28;20205;-66
2021/09/26 01:29:50;;;;;;;;;;;20.70;65.80;;;;;;5016211;28;20606;-67
2021/09/26 01:32:15;;;;;;;;;;;20.70;65.80;;;;;;5023592;28;20000;-67
2021/09/26 01:34:47;;;;;;;;;;;20.70;65.70;;;;;;5021399;28;19921;-67
2021/09/26 01:37:19;;;;;;;;;;;20.70;65.80;;;;;;5018637;28;19999;-67
2021/09/26 01:39:45;;;;;;;;;;;20.70;65.70;;;;;;5025742;28;19924;-66
2021/09/26 01:42:12;;;;;;;;;;;20.60;65.70;;;;;;5009432;28;19913;-67
2021/09/26 01:44:53;;;;;;;;;;;20.60;65.80;;;;;;5026095;28;19925;-65
2021/09/26 01:47:20;;;;;;;;;;;20.70;65.70;;;;;;5023977;28;19917;-67
2021/09/26 01:49:46;;;;;;;;;;;20.60;65.70;;;;;;5026955;28;19932;-67
2021/09/26 01:52:30;;;;;;;;;;;20.70;65.70;;;;;;5025479;28;19923;-67
2021/09/26 01:54:56;;;;;;;;;;;20.70;65.80;;;;;;5020681;28;19917;-67
2021/09/26 01:57:21;;;;;;;;;;;20.70;65.70;;;;;;5009769;28;19923;-67
2021/09/26 01:59:48;;;;;;;;;;;20.60;65.70;;;;;;5025593;28;19947;-67
2021/09/26 02:02:14;;;;;;;;;;;20.60;65.70;;;;;;5025379;28;19931;-66
2021/09/26 02:04:40;;;;;;;;;;;20.60;65.70;;;;;;5025924;28;20563;-65
2021/09/26 02:07:05;;;;;;;;;;;20.60;65.70;;;;;;5026209;28;19964;-67
2021/09/26 02:09:31;;;;;;;;;;;20.60;65.60;;;;;;5025818;28;19925;-67
2021/09/26 02:11:56;;;;;;;;;;;20.60;65.70;;;;;;5025286;28;19963;-67
2021/09/26 02:14:22;;;;;;;;;;;20.60;65.70;;;;;;5025909;28;20311;-65
2021/09/26 02:16:47;;;;;;;;;;;20.60;65.70;;;;;;5025253;28;19929;-67
2021/09/26 02:19:13;;;;;;;;;;;20.60;65.70;;;;;;5024844;28;19925;-66
2021/09/26 02:21:38;;;;;;;;;;;20.60;65.70;;;;;;5012401;28;20363;-67
2021/09/26 02:24:04;;;;;;;;;;;20.70;65.70;;;;;;5024375;28;20004;-66
2021/09/26 02:26:29;;;;;;;;;;;20.60;65.70;;;;;;5008384;28;19970;-66
2021/09/26 02:28:55;;;;;;;;;;;20.60;65.70;;;;;;5007979;28;19964;-67
2021/09/26 02:31:21;;;;;;;;;;;20.60;65.60;;;;;;5020609;28;20379;-66
2021/09/26 02:33:46;;;;;;;;;;;20.60;65.60;;;;;;5026198;28;19924;-65
2021/09/26 02:36:12;;;;;;;;;;;20.60;65.60;;;;;;5026405;28;20423;-66
2021/09/26 02:38:38;;;;;;;;;;;20.60;65.60;;;;;;5025074;28;19925;-66
2021/09/26 02:41:25;;;;;;;;;;;20.60;65.50;;;;;;5007729;28;19921;-66
2021/09/26 02:43:58;;;;;;;;;;;20.60;65.50;;;;;;5024575;28;19913;-66
2021/09/26 02:46:25;;;;;;;;;;;20.60;65.50;;;;;;5023076;28;19917;-66
2021/09/26 02:48:51;;;;;;;;;;;20.60;65.50;;;;;;5024611;28;20380;-66
2021/09/26 02:51:16;;;;;;;;;;;20.60;65.50;;;;;;5022961;28;19966;-66
2021/09/26 02:53:42;;;;;;;;;;;20.60;65.50;;;;;;5026006;28;20370;-65
2021/09/26 02:56:08;;;;;;;;;;;20.60;65.40;;;;;;5025407;28;19924;-66
2021/09/26 02:58:33;;;;;;;;;;;20.60;65.40;;;;;;5024114;28;20295;-65
2021/09/26 03:00:59;;;;;;;;;;;20.60;65.30;;;;;;5023439;28;19921;-66
2021/09/26 03:03:25;;;;;;;;;;;20.60;65.30;;;;;;5023253;28;20438;-64
2021/09/26 03:05:50;;;;;;;;;;;20.60;65.40;;;;;;5024531;28;19920;-66
2021/09/26 03:08:16;;;;;;;;;;;20.60;65.30;;;;;;5025060;28;20241;-66
2021/09/26 03:10:42;;;;;;;;;;;20.60;65.30;;;;;;5023815;28;20181;-66
2021/09/26 03:13:07;;;;;;;;;;;20.60;65.30;;;;;;5023728;28;20402;-66
2021/09/26 03:15:33;;;;;;;;;;;20.60;65.30;;;;;;5023100;28;19925;-66
2021/09/26 03:17:58;;;;;;;;;;;20.60;65.20;;;;;;5025705;28;19936;-66
2021/09/26 03:20:24;;;;;;;;;;;20.60;65.30;;;;;;5023314;28;19921;-66
2021/09/26 03:22:50;;;;;;;;;;;20.60;65.30;;;;;;5025793;28;19918;-66
2021/09/26 03:25:15;;;;;;;;;;;20.60;65.30;;;;;;5025386;28;19920;-66
2021/09/26 03:27:41;;;;;;;;;;;20.60;65.30;;;;;;5019834;28;19921;-66
2021/09/26 03:30:06;;;;;;;;;;;20.60;65.30;;;;;;5023752;28;19929;-66
2021/09/26 03:32:32;;;;;;;;;;;20.60;65.30;;;;;;5025581;28;20367;-66
2021/09/26 03:34:57;;;;;;;;;;;20.60;65.20;;;;;;5026026;28;19925;-66
2021/09/26 03:37:23;;;;;;;;;;;20.60;65.20;;;;;;5023526;28;19921;-66
2021/09/26 03:39:48;;;;;;;;;;;20.60;65.20;;;;;;5024341;28;19929;-66
2021/09/26 03:42:14;;;;;;;;;;;20.60;65.40;;;;;;5025946;28;20545;-66
2021/09/26 03:44:39;;;;;;;;;;;20.60;65.20;;;;;;5023823;28;19925;-66
2021/09/26 03:47:05;;;;;;;;;;;20.60;65.20;;;;;;5024238;28;20287;-66
2021/09/26 03:49:30;;;;;;;;;;;20.60;65.20;;;;;;5024862;28;19917;-66
2021/09/26 03:51:56;;;;;;;;;;;20.60;65.20;;;;;;5025232;28;19921;-66
2021/09/26 03:54:21;;;;;;;;;;;20.60;65.50;;;;;;5023732;28;20367;-66
2021/09/26 03:56:48;;;;;;;;;;;20.50;65.10;;;;;;5023224;28;19917;-65
2021/09/26 03:59:14;;;;;;;;;;;20.60;65.20;;;;;;5024424;28;19924;-66
2021/09/26 04:01:39;;;;;;;;;;;20.60;65.10;;;;;;5022927;28;20294;-66
2021/09/26 04:04:05;;;;;;;;;;;20.60;65.10;;;;;;5022786;28;19917;-66
2021/09/26 04:06:30;;;;;;;;;;;20.50;65.10;;;;;;5020893;28;19929;-66
2021/09/26 04:08:56;;;;;;;;;;;20.50;65.00;;;;;;5023112;28;19917;-65
2021/09/26 04:11:21;;;;;;;;;;;20.50;65.00;;;;;;5025048;28;20279;-66
2021/09/26 04:13:47;;;;;;;;;;;20.50;65.00;;;;;;5024530;28;19917;-64
2021/09/26 04:16:12;;;;;;;;;;;20.50;64.90;;;;;;5022082;28;19925;-66
2021/09/26 04:18:38;;;;;;;;;;;20.50;64.90;;;;;;5021195;28;19917;-66
2021/09/26 04:21:03;;;;;;;;;;;20.50;64.90;;;;;;5024635;28;19983;-65
2021/09/26 04:23:29;;;;;;;;;;;20.60;65.00;;;;;;5024456;28;19927;-66
2021/09/26 04:25:54;;;;;;;;;;;20.50;64.90;;;;;;5023183;28;19918;-65
2021/09/26 04:28:19;;;;;;;;;;;20.50;64.90;;;;;;5024229;28;20028;-67
2021/09/26 04:30:45;;;;;;;;;;;20.50;64.90;;;;;;5023851;28;20407;-66
2021/09/26 04:33:10;;;;;;;;;;;20.50;64.80;;;;;;5023636;28;19928;-65
2021/09/26 04:35:36;;;;;;;;;;;20.50;64.80;;;;;;5023343;28;19924;-67
2021/09/26 04:38:01;;;;;;;;;;;20.50;64.80;;;;;;5026193;28;19955;-67
2021/09/26 04:40:27;;;;;;;;;;;20.50;64.80;;;;;;5027357;28;19940;-67
2021/09/26 04:42:52;;;;;;;;;;;20.50;64.80;;;;;;5023503;28;19963;-67
2021/09/26 04:45:18;;;;;;;;;;;20.50;64.80;;;;;;5039088;28;19929;-67
2021/09/26 04:47:43;;;;;;;;;;;20.50;64.90;;;;;;5039367;28;20287;-66
2021/09/26 04:50:09;;;;;;;;;;;20.50;64.80;;;;;;5023412;28;20015;-65
2021/09/26 04:52:34;;;;;;;;;;;20.50;64.80;;;;;;5006014;28;19928;-64
2021/09/26 04:55:00;;;;;;;;;;;20.50;64.90;;;;;;5024108;28;19917;-66
2021/09/26 04:57:25;;;;;;;;;;;20.50;64.90;;;;;;5024322;28;20375;-66
2021/09/26 04:59:50;;;;;;;;;;;20.50;64.90;;;;;;5023647;28;19920;-66
2021/09/26 05:02:16;;;;;;;;;;;20.50;64.80;;;;;;5024101;28;19925;-66
2021/09/26 05:04:41;;;;;;;;;;;20.50;64.80;;;;;;5023790;28;19975;-66
2021/09/26 05:07:07;;;;;;;;;;;20.50;64.80;;;;;;5024053;28;19918;-66
2021/09/26 05:09:32;;;;;;;;;;;20.50;64.80;;;;;;5023401;28;20007;-65
2021/09/26 05:11:58;;;;;;;;;;;20.50;64.80;;;;;;5024159;28;19913;-66
2021/09/26 05:14:23;;;;;;;;;;;20.50;65.00;;;;;;5022643;28;19921;-66
2021/09/26 05:16:49;;;;;;;;;;;20.50;64.80;;;;;;5023097;28;19921;-66
2021/09/26 05:19:14;;;;;;;;;;;20.50;64.90;;;;;;5023342;28;20382;-67
2021/09/26 05:21:40;;;;;;;;;;;20.50;64.90;;;;;;5021248;28;19913;-66
2021/09/26 05:24:05;;;;;;;;;;;20.50;64.90;;;;;;5023893;28;19921;-66
2021/09/26 05:26:31;;;;;;;;;;;20.50;65.00;;;;;;5022483;28;19919;-66
2021/09/26 05:28:56;;;;;;;;;;;20.40;64.90;;;;;;5024382;28;20342;-66
2021/09/26 05:31:21;;;;;;;;;;;20.50;65.00;;;;;;5023633;28;19924;-65
2021/09/26 05:33:47;;;;;;;;;;;20.50;64.90;;;;;;5023834;28;20018;-67
2021/09/26 05:36:12;;;;;;;;;;;20.50;65.00;;;;;;5024044;28;20359;-66
2021/09/26 05:38:38;;;;;;;;;;;20.50;65.00;;;;;;5021089;28;19921;-66
2021/09/26 05:41:03;;;;;;;;;;;20.50;65.00;;;;;;5022803;28;19921;-66
2021/09/26 05:43:29;;;;;;;;;;;20.50;65.00;;;;;;5022877;28;19922;-66
2021/09/26 05:45:54;;;;;;;;;;;20.50;65.00;;;;;;5022748;28;20332;-66
2021/09/26 05:48:19;;;;;;;;;;;20.40;65.00;;;;;;5022630;28;20067;-66
2021/09/26 05:50:45;;;;;;;;;;;20.40;65.00;;;;;;5021231;28;20295;-66
2021/09/26 05:53:10;;;;;;;;;;;20.40;65.00;;;;;;5021982;28;19928;-67
2021/09/26 05:55:36;;;;;;;;;;;20.50;65.10;;;;;;5021114;28;19916;-66
2021/09/26 05:58:01;;;;;;;;;;;20.40;65.00;;;;;;5022221;28;20376;-67
2021/09/26 06:00:27;;;;;;;;;;;20.50;65.10;;;;;;5021834;28;20004;-67
2021/09/26 06:02:52;;;;;;;;;;;20.50;65.20;;;;;;5023972;28;19925;-66
2021/09/26 06:05:18;;;;;;;;;;;20.40;65.20;;;;;;5022835;28;20004;-66
2021/09/26 06:07:44;;;;;;;;;;;20.40;65.40;;;;;;5021602;28;20115;-67
2021/09/26 06:10:09;;;;;;;;;;;20.50;65.60;;;;;;5022056;28;19948;-67
2021/09/26 06:12:35;;;;;;;;;;;20.50;65.70;;;;;;5023281;28;19913;-67
2021/09/26 06:15:03;;;;;;;;;;;20.50;65.60;;;;;;5006150;28;19917;-66
2021/09/26 06:17:28;;;;;;;;;;;20.40;66.50;;;;;;5017141;28;20183;-66
2021/09/26 06:19:54;;;;;;;;;;;20.40;67.00;;;;;;5023519;28;20210;-67
2021/09/26 06:22:19;;;;;;;;;;;20.40;67.20;;;;;;5031911;28;19921;-65
2021/09/26 06:24:45;;;;;;;;;;;20.40;67.10;;;;;;5040625;28;19992;-65
2021/09/26 06:27:11;;;;;;;;;;;20.50;67.20;;;;;;5034047;28;19928;-65
2021/09/26 06:29:37;;;;;;;;;;;20.50;67.20;;;;;;5026625;28;19963;-65
2021/09/26 06:32:02;;;;;;;;;;;20.50;67.30;;;;;;5027338;28;19917;-62
2021/09/26 06:34:28;;;;;;;;;;;20.50;66.60;;;;;;5027041;28;19948;-63
2021/09/26 06:36:53;;;;;;;;;;;20.50;66.30;;;;;;5028017;28;19925;-65
2021/09/26 06:39:18;;;;;;;;;;;20.50;66.90;;;;;;5024823;28;19917;-65
2021/09/26 06:41:44;;;;;;;;;;;20.50;67.00;;;;;;5024789;28;19925;-66
2021/09/26 06:44:09;;;;;;;;;;;20.40;66.70;;;;;;5025604;28;19924;-66
2021/09/26 06:46:38;;;;;;;;;;;20.50;66.30;;;;;;5024885;28;20384;-63
2021/09/26 06:49:04;;;;;;;;;;;20.50;66.60;;;;;;5026074;28;19944;-66
2021/09/26 06:51:31;;;;;;;;;;;20.40;66.40;;;;;;5026138;28;19924;-65
2021/09/26 06:53:57;;;;;;;;;;;20.40;66.60;;;;;;5026698;28;19975;-65
2021/09/26 06:56:22;;;;;;;;;;;20.50;66.10;;;;;;5026173;28;19925;-67
2021/09/26 06:58:48;;;;;;;;;;;20.50;66.40;;;;;;5044926;28;19913;-66
2021/09/26 07:01:13;;;;;;;;;;;20.40;66.20;;;;;;5043984;28;19921;-66
2021/09/26 07:03:39;;;;;;;;;;;20.40;66.40;;;;;;5026854;28;19975;-65
2021/09/26 07:06:04;;;;;;;;;;;20.40;66.60;;;;;;5026250;28;20317;-66
2021/09/26 07:08:31;;;;;;;;;;;20.40;67.40;;;;;;5009566;28;20050;-65
2021/09/26 07:10:56;;;;;;;;;;;20.40;68.00;;;;;;5027411;28;20106;-66
2021/09/26 07:13:21;;;;;;;;;;;20.40;68.40;;;;;;5024867;28;20672;-66
2021/09/26 07:15:47;;;;;;;;;;;20.40;68.50;;;;;;5024330;28;19921;-66
2021/09/26 07:18:12;;;;;;;;;;;20.40;68.60;;;;;;5024238;28;19928;-65
2021/09/26 07:20:38;;;;;;;;;;;20.40;68.60;;;;;;5022990;28;19913;-66
2021/09/26 07:23:03;;;;;;;;;;;20.40;68.30;;;;;;5023891;28;20417;-66
2021/09/26 07:25:29;;;;;;;;;;;20.40;68.20;;;;;;5026378;28;19917;-67
2021/09/26 07:27:56;;;;;;;;;;;20.40;68.20;;;;;;5025272;28;20534;-66
2021/09/26 07:30:21;;;;;;;;;;;20.40;68.10;;;;;;5025894;28;20462;-67
2021/09/26 07:32:47;;;;;;;;;;;20.40;68.10;;;;;;5024407;28;19991;-67
2021/09/26 07:35:12;;;;;;;;;;;20.40;68.50;;;;;;5006636;28;19925;-66
2021/09/26 07:37:38;;;;;;;;;;;20.40;69.00;;;;;;5024204;28;20363;-67
2021/09/26 07:40:03;;;;;;;;;;;20.40;69.20;;;;;;5024876;28;19954;-66
2021/09/26 07:42:29;;;;;;;;;;;20.30;69.20;;;;;;5024110;28;20232;-66
2021/09/26 07:44:59;;;;;;;;;;;20.40;68.90;;;;;;5024749;28;20414;-66
2021/09/26 07:47:25;;;;;;;;;;;20.40;68.60;;;;;;5025924;28;19913;-66
2021/09/26 07:49:50;;;;;;;;;;;20.40;68.30;;;;;;5025200;28;19924;-66
2021/09/26 07:52:16;;;;;;;;;;;20.40;68.10;;;;;;5025625;28;19913;-67
2021/09/26 07:54:41;;;;;;;;;;;20.40;68.00;;;;;;5025687;28;19960;-66
2021/09/26 07:57:07;;;;;;;;;;;20.40;67.90;;;;;;5025335;28;19917;-66
2021/09/26 07:59:32;;;;;;;;;;;20.40;67.90;;;;;;5024161;28;19941;-66
2021/09/26 08:01:58;;;;;;;;;;;20.40;67.80;;;;;;5023511;28;19983;-66
2021/09/26 08:04:23;;;;;;;;;;;20.40;67.70;;;;;;5027129;28;19914;-66
2021/09/26 08:06:48;;;;;;;;;;;20.40;67.50;;;;;;5007084;28;19913;-66
2021/09/26 08:09:14;;;;;;;;;;;20.40;67.60;;;;;;5006934;28;20489;-65
2021/09/26 08:11:39;;;;;;;;;;;20.40;67.60;;;;;;5025280;28;20009;-65
2021/09/26 08:14:05;;;;;;;;;;;20.30;67.50;;;;;;5007191;28;20196;-66
2021/09/26 08:16:30;;;;;;;;;;;20.40;67.50;;;;;;5006847;28;19929;-65
2021/09/26 08:18:56;;;;;;;;;;;20.40;67.60;;;;;;5022963;28;19913;-66
2021/09/26 08:21:21;;;;;;;;;;;20.30;67.40;;;;;;5007095;28;19925;-66
2021/09/26 08:23:47;;;;;;;;;;;20.40;67.50;;;;;;5023981;28;19913;-65
2021/09/26 08:26:12;;;;;;;;;;;20.30;67.50;;;;;;5023033;28;20333;-64
2021/09/26 08:28:38;;;;;;;;;;;20.40;67.50;;;;;;5006973;28;19920;-65
2021/09/26 08:31:03;;;;;;;;;;;20.40;67.40;;;;;;5025163;28;19921;-66
2021/09/26 08:33:29;;;;;;;;;;;20.40;67.20;;;;;;5024949;28;19956;-67
2021/09/26 08:35:54;;;;;;;;;;;20.30;67.20;;;;;;5023268;28;19922;-66
2021/09/26 08:38:19;;;;;;;;;;;20.30;67.30;;;;;;5024434;28;20342;-66
2021/09/26 08:40:47;;;;;;;;;;;20.40;67.20;;;;;;5023000;28;19920;-65
2021/09/26 08:43:13;;;;;;;;;;;20.30;67.30;;;;;;5022667;28;20305;-66
2021/09/26 08:45:39;;;;;;;;;;;20.30;67.30;;;;;;5006385;28;19913;-66
2021/09/26 08:48:05;;;;;;;;;;;20.30;67.40;;;;;;5022624;28;20039;-66
2021/09/26 08:50:31;;;;;;;;;;;20.30;67.60;;;;;;5022755;28;19948;-64
2021/09/26 08:52:57;;;;;;;;;;;20.30;67.10;;;;;;5025178;28;19956;-66
2021/09/26 08:55:23;;;;;;;;;;;20.30;67.20;;;;;;5023081;28;19959;-66
2021/09/26 08:57:48;;;;;;;;;;;20.30;67.30;;;;;;5023517;28;19941;-66
2021/09/26 09:00:15;;;;;;;;;;;20.30;67.30;;;;;;5022793;28;19948;-66
2021/09/26 09:02:41;;;;;;;;;;;20.30;67.30;;;;;;5022565;28;19944;-66
2021/09/26 09:05:16;;;;;;;;;;;20.30;67.30;;;;;;5016400;28;19921;-66
2021/09/26 09:07:41;;;;;;;;;;;20.30;67.20;;;;;;5020089;28;19928;-65
2021/09/26 09:10:06;;;;;;;;;;;20.30;67.20;;;;;;5022400;28;19917;-67
2021/09/26 09:12:33;;;;;;;;;;;20.30;67.90;;;;;;5006883;28;20391;-66
2021/09/26 09:15:08;;;;;;;;;;;20.30;67.30;;;;;;5023288;28;20271;-66
2021/09/26 09:17:35;;;;;;;;;;;20.30;67.20;;;;;;5022593;28;20007;-66
2021/09/26 09:20:09;;;;;;;;;;;20.30;67.20;;;;;;5023110;28;19914;-66
2021/09/26 09:22:34;;;;;;;;;;;20.30;67.30;;;;;;5022910;28;20429;-65
2021/09/26 09:25:00;;;;;;;;;;;20.30;67.40;;;;;;5021931;28;21625;-67
2021/09/26 09:27:25;;;;;;;;;;;20.30;67.40;;;;;;5004324;28;20266;-66
2021/09/26 09:29:51;;;;;;;;;;;20.30;66.90;;;;;;5022560;28;19928;-66
2021/09/26 09:32:17;;;;;;;;;;;20.30;67.00;;;;;;5020645;28;19921;-67
2021/09/26 09:34:43;;;;;;;;;;;20.30;67.10;;;;;;5021906;28;19917;-66
2021/09/26 09:37:15;;;;;;;;;;;20.30;67.30;;;;;;5025352;28;19991;-67
2021/09/26 09:39:41;;;;;;;;;;;20.30;67.40;;;;;;5021022;28;19921;-67
2021/09/26 09:42:19;;;;;;;;;;;20.30;67.60;;;;;;5021105;28;19975;-66
2021/09/26 09:44:45;;;;;;;;;;;20.30;67.30;;;;;;5023479;28;19927;-65
2021/09/26 09:47:10;;;;;;;;;;;20.30;67.50;;;;;;5022841;28;19925;-66
2021/09/26 09:49:36;;;;;;;;;;;20.30;67.50;;;;;;5022050;28;19921;-65
2021/09/26 09:52:02;;;;;;;;;;;20.30;67.50;;;;;;5022173;28;19976;-66
2021/09/26 09:54:28;;;;;;;;;;;20.30;67.60;;;;;;5013910;28;19979;-66
2021/09/26 09:56:54;;;;;;;;;;;20.20;67.80;;;;;;5020865;28;20303;-66
2021/09/26 09:59:30;;;;;;;;;;;20.20;67.90;;;;;;5023075;28;19960;-66
2021/09/26 10:01:55;;;;;;;;;;;20.30;67.80;;;;;;5026344;28;19925;-66
2021/09/26 10:04:22;;;;;;;;;;;20.30;67.80;;;;;;5027123;28;19940;-66
2021/09/26 10:06:48;;;;;;;;;;;20.20;67.80;;;;;;5025802;28;20350;-66
2021/09/26 10:09:23;;;;;;;;;;;20.30;68.00;;;;;;5025888;28;19929;-66
2021/09/26 10:11:55;;;;;;;;;;;20.20;68.00;;;;;;5025291;28;20004;-66
2021/09/26 10:14:22;;;;;;;;;;;20.20;68.10;;;;;;5025783;28;19956;-67
2021/09/26 10:16:47;;;;;;;;;;;20.20;68.40;;;;;;5025029;28;19929;-66
2021/09/26 10:19:13;;;;;;;;;;;20.20;68.50;;;;;;5009140;28;20193;-66
2021/09/26 10:21:38;;;;;;;;;;;20.20;68.50;;;;;;5009077;28;20165;-67
2021/09/26 10:24:04;;;;;;;;;;;20.20;68.50;;;;;;5009526;28;19984;-66
2021/09/26 10:26:29;;;;;;;;;;;20.20;68.50;;;;;;5026634;28;19978;-66
2021/09/26 10:28:55;;;;;;;;;;;20.30;68.40;;;;;;5007888;28;19930;-66
2021/09/26 10:31:21;;;;;;;;;;;20.20;68.30;;;;;;5025825;28;19917;-66
2021/09/26 10:33:47;;;;;;;;;;;20.20;68.40;;;;;;5025429;28;19917;-67
2021/09/26 10:36:12;;;;;;;;;;;20.20;68.40;;;;;;5026434;28;20287;-66
2021/09/26 10:38:38;;;;;;;;;;;20.20;68.50;;;;;;5026717;28;20388;-67
2021/09/26 10:41:07;;;;;;;;;;;20.20;68.50;;;;;;5025106;28;19924;-66
2021/09/26 10:43:32;;;;;;;;;;;20.20;68.50;;;;;;5003090;28;19913;-66
2021/09/26 10:46:16;;;;;;;;;;;20.20;68.80;;;;;;5039165;28;20285;-65
2021/09/26 10:48:59;;;;;;;;;;;20.20;69.00;;;;;;5008125;28;19917;-66
2021/09/26 10:51:44;;;;;;;;;;;20.20;69.10;;;;;;5033060;28;20032;-66
2021/09/26 10:54:27;;;;;;;;;;;20.20;69.30;;;;;;5014593;28;19917;-65
2021/09/26 10:57:13;;;;;;;;;;;20.20;69.30;;;;;;5029830;28;20283;-66
2021/09/26 10:59:41;;;;;;;;;;;20.20;69.20;;;;;;5023160;28;20455;-66
2021/09/26 11:02:22;;;;;;;;;;;20.20;69.00;;;;;;5031427;28;19956;-66
2021/09/26 11:04:47;;;;;;;;;;;20.20;69.10;;;;;;5022993;28;19995;-65
2021/09/26 11:07:16;;;;;;;;;;;20.20;69.10;;;;;;5030370;28;20001;-66
2021/09/26 11:09:54;;;;;;;;;;;20.20;69.20;;;;;;5023888;28;19966;-66
2021/09/26 11:12:38;;;;;;;;;;;20.20;69.20;;;;;;5029297;28;19947;-66
2021/09/26 11:15:24;;;;;;;;;;;20.20;69.20;;;;;;5027708;28;20339;-65
2021/09/26 11:17:50;;;;;;;;;;;20.20;69.20;;;;;;5020587;28;20311;-65
2021/09/26 11:20:25;;;;;;;;;;;20.20;69.20;;;;;;5012411;28;20397;-65
2021/09/26 11:23:05;;;;;;;;;;;20.20;69.30;;;;;;5023144;28;19917;-66
2021/09/26 11:26:00;;;;;;;;;;;20.20;69.20;;;;;;5024589;28;19975;-68
2021/09/26 11:28:36;;;;;;;;;;;20.20;69.10;;;;;;5018200;28;19917;-67
2021/09/26 11:31:02;;;;;;;;;;;20.20;68.90;;;;;;5020492;28;19997;-66
2021/09/26 11:33:42;;;;;;;;;;;20.20;68.90;;;;;;5011097;28;19917;-67
2021/09/26 11:36:16;;;;;;;;;;;20.20;68.90;;;;;;5022582;28;19924;-66
2021/09/26 11:38:42;;;;;;;;;;;20.20;68.80;;;;;;5013552;28;21312;-65
2021/09/26 11:41:07;;;;;;;;;;;20.20;68.90;;;;;;5022658;28;19917;-67
2021/09/26 11:43:34;;;;;;;;;;;20.20;69.00;;;;;;5015265;28;19978;-67
2021/09/26 11:46:00;;;;;;;;;;;20.20;69.20;;;;;;5037132;28;19929;-67
2021/09/26 11:48:29;;;;;;;;;;;20.20;69.20;;;;;;5023559;28;19919;-67
2021/09/26 11:50:54;;;;;;;;;;;20.20;69.20;;;;;;5030530;28;21112;-66
2021/09/26 11:53:20;;;;;;;;;;;20.20;69.20;;;;;;5025765;28;20056;-66
2021/09/26 11:55:45;;;;;;;;;;;20.20;69.20;;;;;;5027762;28;19986;-65
2021/09/26 11:58:11;;;;;;;;;;;20.20;69.20;;;;;;5024395;28;19928;-67
2021/09/26 12:00:39;;;;;;;;;;;20.20;69.30;;;;;;5026488;28;19913;-63
2021/09/26 12:03:24;;;;;;;;;;;20.20;69.40;;;;;;5025671;28;19917;-67
2021/09/26 12:05:50;;;;;;;;;;;20.20;69.60;;;;;;5023688;28;19949;-67
2021/09/26 12:08:15;;;;;;;;;;;20.20;69.50;;;;;;5025031;28;19945;-65
2021/09/26 12:10:41;;;;;;;;;;;20.20;69.60;;;;;;5011182;28;19925;-64
2021/09/26 12:13:26;;;;;;;;;;;20.20;69.60;;;;;;5025421;28;20327;-64
2021/09/26 12:15:52;;;;;;;;;;;20.20;69.80;;;;;;5012826;28;19936;-66
2021/09/26 12:18:18;;;;;;;;;;;20.20;69.90;;;;;;5025593;28;19921;-65
2021/09/26 12:20:44;;;;;;;;;;;20.20;69.90;;;;;;5026254;28;20302;-65
2021/09/26 12:23:20;;;;;;;;;;;20.20;70.00;;;;;;5024800;28;19917;-66
2021/09/26 12:25:46;;;;;;;;;;;20.20;70.10;;;;;;5010525;28;19925;-66
2021/09/26 12:28:19;;;;;;;;;;;20.20;70.10;;;;;;5025219;28;19921;-65
2021/09/26 12:31:00;;;;;;;;;;;20.20;69.90;;;;;;5021411;28;20351;-67
2021/09/26 12:33:26;;;;;;;;;;;20.20;69.90;;;;;;5037281;28;19920;-67
2021/09/26 12:35:51;;;;;;;;;;;20.20;70.10;;;;;;5032398;28;19917;-67
2021/09/26 12:38:33;;;;;;;;;;;20.30;70.20;;;;;;5024469;28;19913;-66
2021/09/26 12:41:00;;;;;;;;;;;20.30;70.30;;;;;;5011625;28;19918;-65
2021/09/26 12:43:28;;;;;;;;;;;20.20;70.20;;;;;;5021440;28;19924;-65
2021/09/26 12:45:53;;;;;;;;;;;20.30;70.20;;;;;;5013308;28;20003;-65
2021/09/26 12:48:19;;;;;;;;;;;20.30;70.20;;;;;;5024264;28;20000;-65
2021/09/26 12:50:45;;;;;;;;;;;20.30;70.10;;;;;;5009384;28;19929;-62
2021/09/26 12:53:11;;;;;;;;;;;20.30;70.10;;;;;;5023942;28;19921;-66
2021/09/26 12:55:37;;;;;;;;;;;20.30;70.20;;;;;;5024847;28;19931;-66
2021/09/26 12:58:03;;;;;;;;;;;20.30;70.40;;;;;;5022225;28;19917;-66
2021/09/26 13:00:32;;;;;;;;;;;20.30;70.40;;;;;;5011787;28;19917;-66
2021/09/26 13:02:59;;;;;;;;;;;20.30;70.50;;;;;;5024656;28;19913;-65
2021/09/26 13:05:28;;;;;;;;;;;20.30;70.50;;;;;;5025434;28;19963;-66
2021/09/26 13:08:08;;;;;;;;;;;20.30;70.60;;;;;;5024002;28;19914;-65
2021/09/26 13:10:34;;;;;;;;;;;20.30;70.70;;;;;;5019547;28;19979;-66
2021/09/26 13:13:08;;;;;;;;;;;20.30;70.80;;;;;;5023174;28;20374;-65
2021/09/26 13:15:33;;;;;;;;;;;20.30;70.70;;;;;;5025574;28;19920;-66
2021/09/26 13:18:12;;;;;;;;;;;20.30;70.50;;;;;;5024434;28;19917;-67
2021/09/26 13:20:38;;;;;;;;;;;20.30;70.40;;;;;;5026198;28;19923;-66
2021/09/26 13:23:22;;;;;;;;;;;20.30;70.50;;;;;;5025191;28;19917;-66
2021/09/26 13:25:47;;;;;;;;;;;20.30;70.90;;;;;;5025146;28;20098;-66
2021/09/26 13:28:14;;;;;;;;;;;20.30;71.10;;;;;;5024063;28;19917;-66
2021/09/26 13:30:40;;;;;;;;;;;20.40;71.40;;;;;;5008835;28;20008;-66
2021/09/26 13:33:22;;;;;;;;;;;20.40;71.50;;;;;;5023732;28;20004;-66
2021/09/26 13:35:48;;;;;;;;;;;20.30;71.20;;;;;;5009410;28;20080;-67
2021/09/26 13:38:13;;;;;;;;;;;20.40;71.50;;;;;;5022502;28;20438;-66
2021/09/26 13:40:41;;;;;;;;;;;20.40;71.90;;;;;;5025125;28;19978;-66
2021/09/26 13:43:07;;;;;;;;;;;20.40;72.00;;;;;;5023573;28;19924;-66
2021/09/26 13:45:33;;;;;;;;;;;20.40;71.90;;;;;;5025993;28;19913;-67
2021/09/26 13:47:59;;;;;;;;;;;20.40;71.80;;;;;;5020915;28;19921;-66
2021/09/26 13:50:24;;;;;;;;;;;20.40;71.70;;;;;;5023662;28;20283;-66
2021/09/26 13:52:49;;;;;;;;;;;20.40;71.60;;;;;;5021380;28;19940;-66
2021/09/26 13:55:15;;;;;;;;;;;20.40;71.60;;;;;;5021305;28;19948;-70
2021/09/26 13:57:40;;;;;;;;;;;20.40;71.50;;;;;;5020361;28;19959;-66
2021/09/26 14:00:07;;;;;;;;;;;20.40;71.60;;;;;;5004187;28;20401;-66
2021/09/26 14:02:32;;;;;;;;;;;20.40;71.30;;;;;;5022980;28;19960;-66
2021/09/26 14:04:58;;;;;;;;;;;20.40;71.10;;;;;;5021589;28;19949;-66
2021/09/26 14:07:23;;;;;;;;;;;20.40;71.00;;;;;;5021662;28;19924;-65
2021/09/26 14:09:49;;;;;;;;;;;20.40;70.90;;;;;;5021422;28;19925;-66
2021/09/26 14:12:14;;;;;;;;;;;20.40;70.80;;;;;;5021348;28;20016;-67
2021/09/26 14:14:40;;;;;;;;;;;20.40;70.90;;;;;;5022508;28;20052;-67
2021/09/26 14:17:06;;;;;;;;;;;20.50;70.90;;;;;;5022938;28;19924;-67